Time;durP1;ratioP1;P1;durP2;ratioP2;P2;SDS_P1;SDS_P2;PMS_P1;PMS_P2;Temp;Humidity;BMP_temperature;BMP_pressure;BME280_temperature;BME280_humidity;BME280_pressure;Samples;Min_cycle;Max_cycle;Signal;HPM_P1;HPM_P2
2022/12/01 00:00:00;;;;;;;43.70;26.70;;;;;;;-0.53;100.00;99979.09;105969;1283;58939;-78
2022/12/01 00:02:30;;;;;;;41.30;25.40;;;;;;;-0.52;100.00;99981.02;105915;1290;59233;-79
2022/12/01 00:04:56;;;;;;;45.50;27.60;;;;;;;-0.53;100.00;99975.09;105912;1291;67150;-78
2022/12/01 00:07:21;;;;;;;45.10;27.50;;;;;;;-0.51;100.00;99971.23;105917;1290;59204;-78
2022/12/01 00:12:33;;;;;;;41.10;24.80;;;;;;;-0.48;100.00;99970.70;105930;1290;58773;-78
2022/12/01 00:14:59;;;;;;;42.50;26.20;;;;;;;-0.48;100.00;99972.98;105907;1284;59114;-79
2022/12/01 00:17:29;;;;;;;41.60;25.20;;;;;;;-0.50;100.00;99974.55;105950;1284;58882;-78
2022/12/01 00:19:56;;;;;;;40.60;25.00;;;;;;;-0.50;100.00;99973.33;105666;1290;65283;-78
2022/12/01 00:22:22;;;;;;;43.40;27.20;;;;;;;-0.49;100.00;99976.28;105910;1290;58957;-79
2022/12/01 00:24:49;;;;;;;44.90;27.60;;;;;;;-0.47;100.00;99979.06;105932;1283;58879;-79
2022/12/01 00:27:15;;;;;;;45.40;26.70;;;;;;;-0.45;100.00;99980.27;105925;1291;58887;-79
2022/12/01 00:29:41;;;;;;;49.10;27.10;;;;;;;-0.45;100.00;99979.59;105768;1284;58901;-78
2022/12/01 00:32:07;;;;;;;43.80;27.50;;;;;;;-0.42;100.00;99982.02;105914;1291;60159;-78
2022/12/01 00:34:33;;;;;;;45.10;27.50;;;;;;;-0.42;100.00;99982.19;105894;1292;59058;-79
2022/12/01 00:36:59;;;;;;;45.20;26.30;;;;;;;-0.42;100.00;99985.67;105924;1289;58957;-78
2022/12/01 00:39:26;;;;;;;49.00;28.50;;;;;;;-0.42;100.00;99988.11;105979;1291;58927;-79
2022/12/01 00:41:52;;;;;;;46.70;29.10;;;;;;;-0.40;100.00;99990.90;105958;1291;58980;-79
2022/12/01 00:44:17;;;;;;;44.00;28.10;;;;;;;-0.39;100.00;99985.31;105928;1297;59381;-79
2022/12/01 00:46:45;;;;;;;49.40;28.60;;;;;;;-0.37;100.00;99988.44;105917;1283;58890;-78
2022/12/01 00:49:12;;;;;;;50.00;29.70;;;;;;;-0.36;100.00;99989.65;105939;1291;58951;-79
2022/12/01 00:51:38;;;;;;;47.80;27.50;;;;;;;-0.34;100.00;99987.36;105934;1291;58950;-79
2022/12/01 00:54:05;;;;;;;48.10;28.90;;;;;;;-0.33;100.00;99987.88;105919;1290;58966;-78
2022/12/01 00:56:31;;;;;;;49.70;30.20;;;;;;;-0.32;100.00;99990.32;105915;1291;59751;-79
2022/12/01 00:58:57;;;;;;;49.10;29.20;;;;;;;-0.32;100.00;99986.30;105905;1291;58879;-79
2022/12/01 01:01:24;;;;;;;49.90;31.50;;;;;;;-0.29;100.00;99989.43;105934;1291;58889;-78
2022/12/01 01:03:50;;;;;;;54.60;33.60;;;;;;;-0.27;100.00;99988.54;105918;1291;59220;-77
2022/12/01 01:06:15;;;;;;;58.30;32.20;;;;;;;-0.25;100.00;99988.18;105948;1284;59052;-78
2022/12/01 01:08:41;;;;;;;59.70;36.90;;;;;;;-0.24;100.00;99984.32;105951;1288;59950;-78
2022/12/01 01:11:08;;;;;;;55.20;34.90;;;;;;;-0.22;100.00;99982.21;105921;1290;58952;-78
2022/12/01 01:13:36;;;;;;;51.80;33.40;;;;;;;-0.20;100.00;99977.83;105896;1289;66093;-78
2022/12/01 01:16:20;;;;;;;48.50;31.90;;;;;;;-0.18;100.00;99975.20;105925;1291;59036;-78
2022/12/01 01:18:47;;;;;;;51.70;32.00;;;;;;;-0.17;100.00;99974.50;105918;1291;72237;-78
2022/12/01 01:21:16;;;;;;;53.20;32.50;;;;;;;-0.18;100.00;99962.81;105900;1282;59083;-78
2022/12/01 01:23:42;;;;;;;54.10;32.40;;;;;;;-0.18;100.00;99962.11;105920;1290;59010;-78
2022/12/01 01:26:21;;;;;;;51.90;33.20;;;;;;;-0.19;100.00;99961.59;105900;1284;66114;-79
2022/12/01 01:28:49;;;;;;;55.60;32.80;;;;;;;-0.19;100.00;99959.84;105933;1283;69850;-79
2022/12/01 01:31:19;;;;;;;50.70;31.30;;;;;;;-0.20;100.00;99959.34;105906;1291;73940;-78
2022/12/01 01:33:45;;;;;;;54.20;32.20;;;;;;;-0.20;100.00;99959.16;105915;1290;58955;-79
2022/12/01 01:36:13;;;;;;;46.90;29.50;;;;;;;-0.20;100.00;99957.58;105916;1288;59827;-79
2022/12/01 01:38:39;;;;;;;54.10;32.90;;;;;;;-0.18;100.00;99958.62;105957;1283;65799;-78
2022/12/01 01:41:06;;;;;;;52.30;32.60;;;;;;;-0.17;100.00;99955.98;105793;1285;59205;-78
2022/12/01 01:43:46;;;;;;;55.50;32.70;;;;;;;-0.17;100.00;99949.70;105659;1294;59189;-79
2022/12/01 01:46:18;;;;;;;54.80;31.80;;;;;;;-0.17;100.00;99950.93;105571;1296;58957;-79
2022/12/01 01:49:00;;;;;;;53.90;33.60;;;;;;;-0.17;100.00;99950.91;105650;1292;58776;-79
2022/12/01 01:51:43;;;;;;;53.00;32.10;;;;;;;-0.16;100.00;99949.67;105648;1293;67219;-78
2022/12/01 01:54:24;;;;;;;57.50;33.60;;;;;;;-0.17;100.00;99945.33;105680;1293;59028;-78
2022/12/01 01:56:52;;;;;;;54.60;34.60;;;;;;;-0.16;100.00;99942.52;105676;1293;63800;-79
2022/12/01 01:59:28;;;;;;;56.10;34.10;;;;;;;-0.15;100.00;99938.50;105643;1293;59078;-78
2022/12/01 02:02:05;;;;;;;55.20;33.50;;;;;;;-0.15;100.00;99938.15;105675;1293;58883;-79
2022/12/01 02:04:35;;;;;;;58.60;35.30;;;;;;;-0.15;100.00;99936.58;105665;1287;66072;-78
2022/12/01 02:07:01;;;;;;;;;;;;;;;-0.16;100.00;99936.58;105683;1293;67836;-79
2022/12/01 02:09:27;;;;;;;53.40;30.60;;;;;;;-0.17;100.00;99937.30;105656;1287;59204;-78
2022/12/01 02:12:24;;;;;;;54.50;34.90;;;;;;;-0.17;100.00;99937.48;105669;1293;59342;-78
2022/12/01 02:15:12;;;;;;;60.30;35.10;;;;;;;-0.17;100.00;99939.39;105664;1294;60585;-79
2022/12/01 02:17:47;;;;;;;55.50;34.40;;;;;;;-0.17;100.00;99940.09;105659;1294;66174;-79
2022/12/01 02:21:10;;;;;;;60.50;34.00;;;;;;;-0.17;100.00;99939.39;105679;1301;61184;-79
2022/12/01 02:23:58;;;;;;;55.80;34.80;;;;;;;-0.18;100.00;99940.28;105524;1303;65197;-79
2022/12/01 02:26:45;;;;;;;58.00;34.60;;;;;;;-0.18;100.00;99945.01;105543;1297;59243;-78
2022/12/01 02:29:34;;;;;;;54.80;35.00;;;;;;;-0.17;100.00;99943.76;105565;1290;58948;-78
2022/12/01 02:32:17;;;;;;;59.90;34.80;;;;;;;-0.18;100.00;99941.50;105554;1295;66845;-78
2022/12/01 02:34:55;;;;;;;61.20;36.00;;;;;;;-0.17;100.00;99937.30;105539;1287;60469;-78
2022/12/01 02:37:33;;;;;;;57.90;34.90;;;;;;;-0.16;100.00;99933.95;105454;1297;65210;-79
2022/12/01 02:40:14;;;;;;;59.80;36.40;;;;;;;-0.16;100.00;99932.04;105488;1295;59055;-79
2022/12/01 02:43:01;;;;;;;61.50;36.70;;;;;;;-0.16;100.00;99931.35;105551;1296;58971;-79
2022/12/01 02:45:37;;;;;;;61.10;35.70;;;;;;;-0.16;100.00;99930.14;105556;1290;67217;-79
2022/12/01 02:48:08;;;;;;;57.20;36.90;;;;;;;-0.16;100.00;99926.98;105542;1290;69826;-77
2022/12/01 02:50:37;;;;;;;56.70;36.40;;;;;;;-0.16;100.00;99927.33;105552;1296;63805;-78
2022/12/01 02:53:07;;;;;;;59.10;36.30;;;;;;;-0.15;100.00;99927.16;105533;1303;59250;-78
2022/12/01 02:55:33;;;;;;;59.50;36.00;;;;;;;-0.16;100.00;99924.70;105819;1290;58790;-78
2022/12/01 02:57:59;;;;;;;56.10;34.90;;;;;;;-0.15;100.00;99923.66;105943;1288;59347;-79
2022/12/01 06:00:55;;;;;;;38.90;26.40;;;;;;;0.66;100.00;99902.73;105944;1291;65077;-79
2022/12/01 06:03:21;;;;;;;38.90;27.90;;;;;;;0.66;100.00;99901.16;105960;1283;59181;-79
2022/12/01 06:05:49;;;;;;;35.10;22.90;;;;;;;0.67;100.00;99900.81;105924;1275;59007;-78
2022/12/01 06:08:15;;;;;;;35.40;25.80;;;;;;;0.67;100.00;99902.20;105916;1290;58892;-77
2022/12/01 06:10:41;;;;;;;41.10;28.10;;;;;;;0.68;100.00;99905.50;105927;1284;58921;-78
2022/12/01 06:13:07;;;;;;;42.30;29.80;;;;;;;0.68;100.00;99907.06;105953;1290;58994;-78
2022/12/01 06:15:33;;;;;;;40.00;27.90;;;;;;;0.68;100.00;99904.27;105940;1290;58979;-77
2022/12/01 06:17:59;;;;;;;42.10;29.60;;;;;;;0.68;100.00;99907.95;105755;1292;59403;-78
2022/12/01 06:20:25;;;;;;;38.20;26.90;;;;;;;0.69;100.00;99909.86;105935;1282;58922;-78
2022/12/01 06:22:51;;;;;;;38.10;26.20;;;;;;;0.71;100.00;99911.95;105927;1276;58948;-77
2022/12/01 06:25:17;;;;;;;33.20;23.60;;;;;;;0.74;100.00;99913.64;105955;1289;59009;-77
2022/12/01 06:27:43;;;;;;;36.80;26.10;;;;;;;0.74;100.00;99913.81;105982;1290;58961;-77
2022/12/01 06:30:09;;;;;;;32.40;23.50;;;;;;;0.75;100.00;99912.59;105953;1291;59245;-77
2022/12/01 06:32:37;;;;;;;34.20;24.80;;;;;;;0.75;100.00;99912.05;105891;1283;58983;-78
2022/12/01 06:35:03;;;;;;;32.70;24.20;;;;;;;0.76;100.00;99911.87;105936;1290;65933;-77
2022/12/01 06:37:29;;;;;;;31.60;23.20;;;;;;;0.77;100.00;99914.30;105964;1282;58949;-76
2022/12/01 06:39:55;;;;;;;30.90;22.80;;;;;;;0.79;100.00;99914.29;105924;1290;59023;-77
2022/12/01 06:42:21;;;;;;;35.10;23.80;;;;;;;0.80;100.00;99914.61;105189;1283;1002248;-77
2022/12/01 06:44:47;;;;;;;33.80;22.60;;;;;;;0.83;100.00;99915.11;105952;1283;58938;-77
2022/12/01 06:47:14;;;;;;;32.70;22.60;;;;;;;0.84;100.00;99918.42;105953;1290;59398;-78
2022/12/01 06:49:40;;;;;;;33.00;22.00;;;;;;;0.85;100.00;99915.61;105971;1290;59130;-79
2022/12/01 06:52:06;;;;;;;30.00;20.90;;;;;;;0.85;100.00;99916.48;105669;1291;58964;-79
2022/12/01 06:54:35;;;;;;;27.90;21.80;;;;;;;0.86;100.00;99914.37;105899;1285;58872;-79
2022/12/01 06:57:01;;;;;;;27.80;21.30;;;;;;;0.87;100.00;99915.41;105952;1284;58887;-78
2022/12/01 06:59:27;;;;;;;28.80;21.10;;;;;;;0.88;100.00;99914.17;105908;1283;59008;-79
2022/12/01 07:01:53;;;;;;;23.40;17.00;;;;;;;0.90;100.00;99914.50;105917;1287;58952;-77
2022/12/01 07:04:20;;;;;;;24.90;18.20;;;;;;;0.90;100.00;99918.17;105956;1289;59378;-78
2022/12/01 07:06:46;;;;;;;24.30;17.80;;;;;;;0.91;100.00;99922.17;105942;1284;58941;-77
2022/12/01 07:09:12;;;;;;;24.10;18.30;;;;;;;0.93;100.00;99915.86;105979;1277;58952;-77
2022/12/01 07:11:39;;;;;;;21.60;16.30;;;;;;;0.94;100.00;99923.18;105931;1290;58930;-78
2022/12/01 07:14:05;;;;;;;21.20;15.60;;;;;;;0.95;100.00;99928.61;105938;1284;59124;-77
2022/12/01 07:16:31;;;;;;;21.00;16.30;;;;;;;0.95;100.00;99930.36;105967;1287;58976;-77
2022/12/01 07:18:58;;;;;;;25.00;18.70;;;;;;;0.95;100.00;99929.85;105930;1290;58903;-77
2022/12/01 07:21:24;;;;;;;25.10;18.80;;;;;;;0.96;100.00;99932.09;105944;1283;58887;-78
2022/12/01 07:23:51;;;;;;;25.30;19.50;;;;;;;0.97;100.00;99931.55;105959;1290;58989;-77
2022/12/01 07:26:17;;;;;;;25.20;18.30;;;;;;;0.98;100.00;99933.64;105940;1284;58972;-78
2022/12/01 07:28:44;;;;;;;27.80;19.20;;;;;;;1.00;100.00;99936.06;105919;1283;58955;-78
2022/12/01 07:31:11;;;;;;;24.20;18.80;;;;;;;1.01;100.00;99934.81;105936;1291;58876;-78
2022/12/01 07:33:37;;;;;;;21.80;17.20;;;;;;;1.03;100.00;99936.21;105948;1284;59219;-77
2022/12/01 07:36:04;;;;;;;21.70;16.30;;;;;;;1.03;100.00;99938.14;105941;1289;58925;-77
2022/12/01 07:38:33;;;;;;;20.10;16.80;;;;;;;1.01;100.00;99938.15;105211;1290;1003204;-78
2022/12/01 07:41:11;;;;;;;19.30;14.10;;;;;;;1.00;100.00;99941.66;105926;1290;72443;-77
2022/12/01 07:43:38;;;;;;;21.80;17.20;;;;;;;0.98;100.00;99940.10;105933;1291;58902;-77
2022/12/01 07:46:11;;;;;;;22.00;16.90;;;;;;;0.99;100.00;99942.90;105954;1290;59011;-77
2022/12/01 07:48:39;;;;;;;21.10;16.40;;;;;;;0.99;100.00;99942.88;105953;1290;66946;-77
2022/12/01 07:51:07;;;;;;;23.70;18.90;;;;;;;1.00;100.00;99940.27;105971;1290;61297;-77
2022/12/01 07:53:34;;;;;;;23.40;16.70;;;;;;;1.02;100.00;99938.67;105940;1286;65137;-77
2022/12/01 07:56:00;;;;;;;20.50;15.80;;;;;;;1.03;100.00;99941.45;105697;1293;58969;-78
2022/12/01 07:58:26;;;;;;;23.90;17.00;;;;;;;1.03;100.00;99936.38;105783;1292;58744;-78
2022/12/01 08:00:53;;;;;;;21.10;16.50;;;;;;;1.04;100.00;99934.96;105785;1294;59469;-78
2022/12/01 08:03:20;;;;;;;20.60;16.20;;;;;;;1.04;100.00;99938.10;105933;1290;58960;-79
2022/12/01 08:05:56;;;;;;;24.10;17.20;;;;;;;1.05;100.00;99933.02;105945;1291;58989;-79
2022/12/01 08:08:23;;;;;;;24.00;17.50;;;;;;;1.06;100.00;99932.12;105756;1293;58899;-79
2022/12/01 08:10:49;;;;;;;22.20;16.90;;;;;;;1.08;100.00;99933.50;105951;1291;58988;-78
2022/12/01 08:13:15;;;;;;;23.20;17.70;;;;;;;1.10;100.00;99935.92;105943;1290;59030;-79
2022/12/01 08:15:41;;;;;;;25.30;19.90;;;;;;;1.13;100.00;99939.56;105790;1289;58995;-77
2022/12/01 08:18:07;;;;;;;26.90;20.40;;;;;;;1.13;100.00;99939.73;105927;1290;58917;-78
2022/12/01 08:20:33;;;;;;;27.70;19.70;;;;;;;1.16;100.00;99941.46;105956;1285;59745;-78
2022/12/01 08:23:00;;;;;;;27.90;21.00;;;;;;;1.17;100.00;99944.59;105927;1290;58890;-78
2022/12/01 08:25:28;;;;;;;24.20;17.40;;;;;;;1.20;100.00;99945.60;105771;1289;59068;-78
2022/12/01 08:27:54;;;;;;;22.30;17.60;;;;;;;1.20;100.00;99949.27;105927;1284;58855;-78
2022/12/01 08:30:20;;;;;;;22.30;18.20;;;;;;;1.17;100.00;99951.42;105937;1289;59164;-78
2022/12/01 08:32:46;;;;;;;25.70;19.70;;;;;;;1.16;100.00;99951.25;105941;1298;58927;-77
2022/12/01 08:35:12;;;;;;;23.60;17.10;;;;;;;1.17;100.00;99952.29;105940;1290;59021;-78
2022/12/01 08:37:38;;;;;;;26.20;20.20;;;;;;;1.19;100.00;99954.02;105943;1290;58967;-78
2022/12/01 08:40:05;;;;;;;27.60;19.80;;;;;;;1.20;100.00;99956.10;105930;1297;58928;-78
2022/12/01 08:42:31;;;;;;;24.90;18.20;;;;;;;1.21;100.00;99956.27;105930;1291;59248;-77
2022/12/01 08:44:57;;;;;;;27.10;19.50;;;;;;;1.21;100.00;99956.08;105946;1291;58922;-78
2022/12/01 08:47:22;;;;;;;31.10;21.00;;;;;;;1.22;100.00;99958.35;105959;1284;58926;-78
2022/12/01 08:49:48;;;;;;;27.00;20.40;;;;;;;1.22;100.00;99957.99;105998;1291;58973;-78
2022/12/01 08:52:14;;;;;;;32.50;27.00;;;;;;;1.23;100.00;99960.09;105950;1290;72880;-78
2022/12/01 08:54:41;;;;;;;31.60;24.60;;;;;;;1.23;100.00;99957.11;105947;1290;58921;-78
2022/12/01 08:57:07;;;;;;;25.20;18.50;;;;;;;1.24;100.00;99957.63;105956;1284;58962;-78
2022/12/01 08:59:32;;;;;;;27.30;18.20;;;;;;;1.24;100.00;99961.30;105761;1284;58973;-77
2022/12/01 09:01:58;;;;;;;26.30;20.50;;;;;;;1.24;100.00;99961.66;105942;1289;58923;-77
2022/12/01 09:04:25;;;;;;;26.40;19.70;;;;;;;1.23;100.00;99955.01;105958;1284;59217;-77
2022/12/01 09:06:53;;;;;;;26.20;18.70;;;;;;;1.26;100.00;99953.22;105961;1287;58873;-77
2022/12/01 09:09:24;;;;;;;27.70;19.10;;;;;;;1.27;100.00;99953.73;105977;1289;58913;-78
2022/12/01 09:11:51;;;;;;;25.60;18.30;;;;;;;1.29;100.00;99951.42;105933;1291;74982;-78
2022/12/01 09:14:18;;;;;;;23.10;16.90;;;;;;;1.29;100.00;99949.67;105960;1290;61278;-78
2022/12/01 09:16:46;;;;;;;26.80;18.90;;;;;;;1.31;100.00;99944.39;105918;1291;63929;-78
2022/12/01 09:19:13;;;;;;;27.10;18.60;;;;;;;1.32;100.00;99945.96;105942;1290;58937;-77
2022/12/01 09:21:41;;;;;;;26.40;19.90;;;;;;;1.32;100.00;99944.39;105935;1290;58802;-77
2022/12/01 09:24:10;;;;;;;27.00;18.30;;;;;;;1.33;100.00;99938.95;105876;1282;66931;-78
2022/12/01 09:26:36;;;;;;;21.90;16.50;;;;;;;1.34;100.00;99935.77;105930;1290;60769;-78
2022/12/01 09:29:05;;;;;;;24.60;18.80;;;;;;;1.36;100.00;99934.02;105907;1289;59298;-78
2022/12/01 09:31:32;;;;;;;23.20;16.60;;;;;;;1.37;100.00;99934.69;105850;1289;58955;-77
2022/12/01 09:34:02;;;;;;;24.10;18.20;;;;;;;1.38;100.00;99930.29;105739;1291;58853;-77
2022/12/01 09:36:29;;;;;;;24.50;17.00;;;;;;;1.38;100.00;99933.27;105947;1290;67258;-77
2022/12/01 09:38:56;;;;;;;20.80;15.30;;;;;;;1.38;100.00;99929.77;105951;1284;68146;-77
2022/12/01 09:41:26;;;;;;;23.10;16.30;;;;;;;1.39;100.00;99930.63;105915;1291;58950;-77
2022/12/01 09:44:13;;;;;;;22.40;15.80;;;;;;;1.40;100.00;99933.41;105949;1291;59000;-77
2022/12/01 09:46:47;;;;;;;21.90;16.10;;;;;;;1.39;100.00;99930.80;105930;1288;58873;-77
2022/12/01 09:49:18;;;;;;;22.60;15.10;;;;;;;1.38;100.00;99927.50;105932;1290;67269;-77
2022/12/01 09:51:44;;;;;;;23.00;18.80;;;;;;;1.38;100.00;99927.66;105944;1291;61019;-74
2022/12/01 09:54:12;;;;;;;25.90;18.10;;;;;;;1.41;100.00;99925.70;105928;1290;58928;-74
2022/12/01 09:56:51;;;;;;;23.90;17.80;;;;;;;1.42;100.00;99922.18;105927;1288;59153;-74
2022/12/01 09:59:22;;;;;;;18.70;15.00;;;;;;;1.44;100.00;99921.79;105935;1275;58800;-83
2022/12/01 10:01:54;;;;;;;19.50;14.60;;;;;;;1.45;100.00;99920.55;105955;1291;64611;-75
2022/12/01 10:04:45;;;;;;;20.90;17.00;;;;;;;1.44;100.00;99921.96;105883;1289;60062;-75
2022/12/01 10:07:20;;;;;;;22.80;16.90;;;;;;;1.45;100.00;99920.02;105944;1290;62506;-76
2022/12/01 10:09:51;;;;;;;20.60;15.80;;;;;;;1.45;100.00;99917.77;105930;1297;58935;-74
2022/12/01 10:12:22;;;;;;;20.80;15.10;;;;;;;1.43;100.00;99914.99;105659;1294;58790;-75
2022/12/01 10:14:49;;;;;;;18.80;14.20;;;;;;;1.40;100.00;99916.96;105957;1290;67266;-74
2022/12/01 10:17:44;;;;;;;21.80;15.80;;;;;;;1.40;100.00;99916.27;105954;1291;61207;-76
2022/12/01 10:20:21;;;;;;;23.40;16.10;;;;;;;1.39;100.00;99913.82;105928;1296;65483;-75
2022/12/01 10:23:05;;;;;;;21.00;15.30;;;;;;;1.38;100.00;99914.89;105937;1290;58909;-74
2022/12/01 10:25:58;;;;;;;19.90;14.70;;;;;;;1.38;100.00;99908.41;105932;1296;59043;-74
2022/12/01 10:28:48;;;;;;;20.60;15.30;;;;;;;1.37;100.00;99905.98;105280;1297;74717;-75
2022/12/01 10:31:47;;;;;;;;;;;;;;;1.37;100.00;99909.65;105293;1299;61004;-75
2022/12/01 10:34:18;;;;;;;18.80;15.20;;;;;;;1.38;100.00;99907.37;104837;1309;62386;-75
2022/12/01 10:36:46;;;;;;;19.50;15.40;;;;;;;1.39;100.00;99902.79;104804;1304;59670;-74
2022/12/01 10:39:22;;;;;;;20.40;14.80;;;;;;;1.40;100.00;99898.77;104828;1301;59063;-74
2022/12/01 10:41:49;;;;;;;31.70;20.10;;;;;;;1.40;100.00;99896.82;104502;1308;64673;-75
2022/12/01 10:44:17;;;;;;;19.00;15.50;;;;;;;1.42;100.00;99892.08;104801;1305;61317;-75
2022/12/01 10:46:51;;;;;;;19.60;14.40;;;;;;;1.43;100.00;99890.14;104670;1305;159495;-75
2022/12/01 10:49:19;;;;;;;20.60;14.70;;;;;;;1.41;100.00;99887.00;104800;1306;59385;-74
2022/12/01 10:51:53;;;;;;;18.50;14.70;;;;;;;1.39;100.00;99883.70;104787;1305;59653;-75
2022/12/01 10:54:21;;;;;;;19.40;15.30;;;;;;;1.36;100.00;99885.67;104817;1301;66878;-75
2022/12/01 10:56:49;;;;;;;19.60;16.50;;;;;;;1.34;100.00;99886.77;104830;1305;59745;-75
2022/12/01 10:59:47;;;;;;;23.50;17.80;;;;;;;1.34;100.00;99883.79;104792;1305;73906;-75
2022/12/01 11:02:16;;;;;;;20.40;15.70;;;;;;;1.36;100.00;99883.92;104798;1308;58976;-75
2022/12/01 11:04:53;;;;;;;20.60;16.50;;;;;;;1.37;100.00;99882.16;104852;1302;58851;-75
2022/12/01 11:07:28;;;;;;;23.50;17.80;;;;;;;1.37;100.00;99879.89;105270;1291;66986;-75
2022/12/01 11:10:22;;;;;;;22.60;16.40;;;;;;;1.37;100.00;99883.02;105502;1292;68785;-74
2022/12/01 11:13:21;;;;;;;24.70;17.60;;;;;;;1.37;100.00;99880.23;105899;1292;65494;-75
2022/12/01 11:15:53;;;;;;;23.10;17.30;;;;;;;1.37;100.00;99880.93;105934;1291;58882;-75
2022/12/01 11:18:37;;;;;;;21.60;16.60;;;;;;;1.37;100.00;99880.41;105939;1290;58964;-74
2022/12/01 11:21:08;;;;;;;22.00;16.70;;;;;;;1.38;100.00;99878.30;105787;1285;66164;-74
2022/12/01 11:23:36;;;;;;;25.90;16.90;;;;;;;1.37;100.00;99873.59;105953;1291;60145;-75
2022/12/01 11:26:28;;;;;;;22.80;17.20;;;;;;;1.36;100.00;99875.86;105933;1297;64998;-75
2022/12/01 11:28:57;;;;;;;21.20;17.50;;;;;;;1.35;100.00;99871.69;105922;1290;59192;-75
2022/12/01 11:31:37;;;;;;;23.90;18.50;;;;;;;1.34;100.00;99867.85;105947;1291;58770;-74
2022/12/01 11:34:04;;;;;;;22.20;18.20;;;;;;;1.33;100.00;99868.05;105729;1293;64633;-75
2022/12/01 11:36:37;;;;;;;23.60;17.80;;;;;;;1.34;100.00;99868.38;105948;1292;59147;-75
2022/12/01 11:39:34;;;;;;;22.20;17.00;;;;;;;1.37;100.00;99868.86;105917;1290;64967;-75
2022/12/01 11:42:40;;;;;;;22.50;17.80;;;;;;;1.37;100.00;99871.14;105259;1298;59674;-75
2022/12/01 11:45:20;;;;;;;24.30;17.60;;;;;;;1.37;100.00;99873.59;104833;1305;58869;-75
2022/12/01 11:48:35;;;;;;;23.40;17.10;;;;;;;1.36;100.00;99877.27;104785;1305;67068;-75
2022/12/01 11:51:23;;;;;;;23.10;18.00;;;;;;;1.37;100.00;99877.96;104809;1303;59976;-75
2022/12/01 11:54:13;;;;;;;22.00;16.80;;;;;;;1.40;100.00;99877.75;104589;1304;62521;-75
2022/12/01 11:56:41;;;;;;;26.80;19.30;;;;;;;1.41;100.00;99876.33;104779;1298;59814;-75
2022/12/01 11:59:14;;;;;;;25.80;18.70;;;;;;;1.43;100.00;99877.70;104802;1304;60466;-75
2022/12/01 12:01:52;;;;;;;24.80;17.20;;;;;;;1.45;100.00;99875.38;104662;1311;64835;-75
2022/12/01 12:04:54;;;;;;;22.30;17.00;;;;;;;1.43;100.00;99871.73;104803;1297;59813;-75
2022/12/01 12:07:54;;;;;;;23.80;17.50;;;;;;;1.40;100.00;99874.41;104843;1305;65795;-74
2022/12/01 12:10:49;;;;;;;23.80;17.80;;;;;;;1.36;100.00;99870.27;104791;1305;59098;-76
2022/12/01 12:13:21;;;;;;;26.90;17.40;;;;;;;1.31;100.00;99875.59;104793;1301;59080;-75
2022/12/01 12:16:01;;;;;;;30.20;19.10;;;;;;;1.31;100.00;99873.14;104819;1304;67213;-75
2022/12/01 12:18:48;;;;;;;26.70;18.10;;;;;;;1.31;100.00;99877.35;104835;1306;60133;-75
2022/12/01 12:21:30;;;;;;;22.10;16.80;;;;;;;1.30;100.00;99877.17;105598;1292;73956;-75
2022/12/01 12:24:34;;;;;;;25.90;18.50;;;;;;;1.28;100.00;99875.29;105946;1292;59779;-76
2022/12/01 12:27:29;;;;;;;24.40;17.80;;;;;;;1.27;100.00;99882.66;105929;1290;58966;-76
2022/12/01 12:30:18;;;;;;;31.40;22.30;;;;;;;1.26;100.00;99889.86;105911;1292;67006;-76
2022/12/01 12:33:14;;;;;;;27.10;18.40;;;;;;;1.27;100.00;99890.36;105586;1295;59863;-76
2022/12/01 12:36:02;;;;;;;27.60;16.80;;;;;;;1.26;100.00;99889.67;105895;1290;65023;-76
2022/12/01 12:39:23;;;;;;;23.80;17.10;;;;;;;1.25;100.00;99889.16;105923;1290;59702;-76
2022/12/01 12:41:55;;;;;;;28.60;19.60;;;;;;;1.23;100.00;99885.35;105915;1296;58980;-75
2022/12/01 12:44:42;;;;;;;44.50;27.40;;;;;;;1.21;100.00;99880.81;105915;1297;66864;-75
2022/12/01 12:47:17;;;;;;;31.40;20.90;;;;;;;1.19;100.00;99879.27;105941;1291;60094;-76
2022/12/01 12:49:49;;;;;;;33.90;23.00;;;;;;;1.20;100.00;99881.55;105904;1297;72182;-76
2022/12/01 12:52:27;;;;;;;28.00;20.60;;;;;;;1.19;100.00;99879.11;105900;1291;58809;-76
2022/12/01 12:54:57;;;;;;;29.70;20.10;;;;;;;1.19;100.00;99882.61;105938;1292;59164;-76
2022/12/01 12:57:46;;;;;;;30.20;20.00;;;;;;;1.17;100.00;99884.91;105927;1291;65939;-76
2022/12/01 13:00:16;;;;;;;32.00;22.40;;;;;;;1.15;100.00;99885.80;105952;1289;61213;-76
2022/12/01 13:02:45;;;;;;;;;;;;;;;1.14;100.00;99886.52;105785;1284;63980;-76
2022/12/01 13:05:29;;;;;;;26.00;17.70;;;;;;;1.14;100.00;99893.52;105616;1292;59203;-76
2022/12/01 13:07:55;;;;;;;27.10;18.20;;;;;;;1.10;100.00;99893.23;105904;1291;58911;-75
2022/12/01 13:10:40;;;;;;;28.70;18.10;;;;;;;1.07;100.00;99893.80;105930;1290;59279;-75
2022/12/01 13:13:36;;;;;;;24.20;18.00;;;;;;;1.05;100.00;99896.10;105870;1295;69093;-83
2022/12/01 13:16:10;;;;;;;28.70;17.70;;;;;;;1.02;100.00;99892.11;105793;1292;64975;-75
2022/12/01 13:18:54;;;;;;;27.50;18.40;;;;;;;1.00;100.00;99891.80;105930;1282;58887;-76
2022/12/01 13:21:21;;;;;;;26.70;18.60;;;;;;;1.00;100.00;99892.15;105946;1289;59006;-76
2022/12/01 13:23:49;;;;;;;26.50;18.40;;;;;;;1.00;100.00;99884.80;105774;1284;74565;-75
2022/12/01 13:26:19;;;;;;;26.50;18.20;;;;;;;0.99;100.00;99883.22;105916;1289;68743;-76
2022/12/01 13:28:56;;;;;;;22.40;15.60;;;;;;;0.98;100.00;99884.13;105909;1292;72652;-76
2022/12/01 13:31:22;;;;;;;29.80;19.90;;;;;;;0.98;100.00;99888.51;105905;1290;58998;-76
2022/12/01 13:34:00;;;;;;;28.30;19.60;;;;;;;0.98;100.00;99885.70;105921;1292;59257;-76
2022/12/01 13:36:28;;;;;;;28.30;17.70;;;;;;;0.98;100.00;99885.17;105893;1294;74718;-76
2022/12/01 13:38:54;;;;;;;25.20;17.00;;;;;;;0.97;100.00;99884.13;105933;1284;61022;-76
2022/12/01 13:41:25;;;;;;;29.00;18.80;;;;;;;0.96;100.00;99887.46;105915;1287;58952;-77
2022/12/01 13:44:02;;;;;;;26.40;18.40;;;;;;;0.95;100.00;99889.77;105908;1292;59377;-78
2022/12/01 13:46:48;;;;;;;28.40;19.00;;;;;;;0.94;100.00;99893.63;105916;1291;60581;-76
2022/12/01 13:49:39;;;;;;;24.00;16.20;;;;;;;0.93;100.00;99888.91;105851;1292;75097;-77
2022/12/01 13:52:20;;;;;;;33.90;21.60;;;;;;;0.92;100.00;99893.13;105931;1292;61242;-76
2022/12/01 13:55:08;;;;;;;31.50;21.00;;;;;;;0.92;100.00;99888.75;105910;1281;64039;-76
2022/12/01 13:57:40;;;;;;;28.20;19.70;;;;;;;0.92;100.00;99888.20;105898;1291;58878;-78
2022/12/01 14:00:31;;;;;;;28.00;19.00;;;;;;;0.92;100.00;99885.59;105942;1290;58884;-76
2022/12/01 14:03:20;;;;;;;31.00;21.70;;;;;;;0.92;100.00;99886.48;105898;1290;72709;-76
2022/12/01 14:06:00;;;;;;;24.20;18.10;;;;;;;0.92;100.00;99888.57;105916;1289;59932;-75
2022/12/01 14:08:33;;;;;;;26.70;18.40;;;;;;;0.90;100.00;99885.29;105928;1297;62455;-76
2022/12/01 14:11:02;;;;;;;26.00;17.70;;;;;;;0.88;100.00;99889.68;105924;1289;58898;-76
2022/12/01 14:13:30;;;;;;;25.70;17.70;;;;;;;0.85;100.00;99892.69;105687;1293;58987;-76
2022/12/01 14:16:03;;;;;;;25.10;17.30;;;;;;;0.84;100.00;99884.66;105780;1295;66855;-77
2022/12/01 14:18:32;;;;;;;30.30;18.40;;;;;;;0.84;100.00;99889.90;105700;1292;59051;-77
2022/12/01 14:21:03;;;;;;;30.90;20.30;;;;;;;0.84;100.00;99889.73;105770;1297;62369;-75
2022/12/01 14:23:33;;;;;;;28.10;19.10;;;;;;;0.84;100.00;99892.53;105907;1290;59073;-77
2022/12/01 14:26:19;;;;;;;25.70;18.30;;;;;;;0.85;100.00;99887.98;105954;1292;58898;-76
2022/12/01 14:28:54;;;;;;;27.70;18.90;;;;;;;0.86;100.00;99890.75;105932;1291;65718;-76
2022/12/01 14:31:23;;;;;;;27.60;18.50;;;;;;;0.85;100.00;99890.07;105917;1290;59123;-77
2022/12/01 14:34:13;;;;;;;27.40;18.60;;;;;;;0.85;100.00;99887.09;105912;1291;65100;-76
2022/12/01 14:36:48;;;;;;;26.20;18.70;;;;;;;0.86;100.00;99891.79;105931;1287;58943;-76